sensor_id;sensor_type;location;lat;lon;timestamp;pressure;altitude;pressure_sealevel;temperature;humidity
30730;BME280;17476;48.458;7.928;2023-03-25T00:01:15;99524.47;;;10.16;87.93
30730;BME280;17476;48.458;7.928;2023-03-25T00:03:42;99529.72;;;10.08;88.56
30730;BME280;17476;48.458;7.928;2023-03-25T00:06:12;99534.13;;;10.07;91.19
30730;BME280;17476;48.458;7.928;2023-03-25T00:08:38;99524.69;;;9.98;90.78
30730;BME280;17476;48.458;7.928;2023-03-25T00:11:05;99527.00;;;9.93;91.50
30730;BME280;17476;48.458;7.928;2023-03-25T00:13:31;99533.38;;;9.91;90.34
30730;BME280;17476;48.458;7.928;2023-03-25T00:15:58;99522.75;;;9.92;90.96
30730;BME280;17476;48.458;7.928;2023-03-25T00:18:27;99511.31;;;9.93;92.61
30730;BME280;17476;48.458;7.928;2023-03-25T00:20:54;99523.75;;;9.91;92.72
30730;BME280;17476;48.458;7.928;2023-03-25T00:23:22;99504.34;;;9.85;93.86
30730;BME280;17476;48.458;7.928;2023-03-25T00:25:48;99500.28;;;9.83;96.39
30730;BME280;17476;48.458;7.928;2023-03-25T00:28:15;99502.22;;;9.89;94.51
30730;BME280;17476;48.458;7.928;2023-03-25T00:30:43;99504.97;;;9.88;93.14
30730;BME280;17476;48.458;7.928;2023-03-25T00:33:10;99499.44;;;9.91;93.17
30730;BME280;17476;48.458;7.928;2023-03-25T00:35:39;99484.09;;;9.88;94.29
30730;BME280;17476;48.458;7.928;2023-03-25T00:38:13;99488.66;;;9.85;95.67
30730;BME280;17476;48.458;7.928;2023-03-25T00:40:39;99488.31;;;9.89;96.43
30730;BME280;17476;48.458;7.928;2023-03-25T00:43:06;99486.41;;;9.82;97.98
30730;BME280;17476;48.458;7.928;2023-03-25T00:45:33;99493.28;;;9.75;99.27
30730;BME280;17476;48.458;7.928;2023-03-25T00:47:59;99488.38;;;9.80;97.11
30730;BME280;17476;48.458;7.928;2023-03-25T00:50:25;99489.56;;;9.70;97.01
30730;BME280;17476;48.458;7.928;2023-03-25T00:52:51;99492.31;;;9.68;98.23
30730;BME280;17476;48.458;7.928;2023-03-25T00:55:20;99479.31;;;9.60;98.87
30730;BME280;17476;48.458;7.928;2023-03-25T00:57:47;99468.69;;;9.62;98.96
30730;BME280;17476;48.458;7.928;2023-03-25T01:00:16;99466.59;;;9.57;98.45
30730;BME280;17476;48.458;7.928;2023-03-25T01:02:42;99468.41;;;9.56;98.84
30730;BME280;17476;48.458;7.928;2023-03-25T01:05:09;99466.91;;;9.54;97.58
30730;BME280;17476;48.458;7.928;2023-03-25T01:07:37;99451.78;;;9.49;97.54
30730;BME280;17476;48.458;7.928;2023-03-25T01:10:04;99451.78;;;9.49;97.25
30730;BME280;17476;48.458;7.928;2023-03-25T01:12:30;99452.25;;;9.53;96.75
30730;BME280;17476;48.458;7.928;2023-03-25T01:14:56;99455.66;;;9.53;96.30
30730;BME280;17476;48.458;7.928;2023-03-25T01:17:22;99452.59;;;9.50;95.73
30730;BME280;17476;48.458;7.928;2023-03-25T01:19:48;99466.63;;;9.41;97.01
30730;BME280;17476;48.458;7.928;2023-03-25T01:22:14;99465.69;;;9.42;95.90
30730;BME280;17476;48.458;7.928;2023-03-25T01:24:40;99471.72;;;9.42;94.59
30730;BME280;17476;48.458;7.928;2023-03-25T01:27:05;99464.53;;;9.36;94.72
30730;BME280;17476;48.458;7.928;2023-03-25T01:29:31;99452.94;;;9.39;94.33
30730;BME280;17476;48.458;7.928;2023-03-25T01:31:57;99450.16;;;9.40;95.10
30730;BME280;17476;48.458;7.928;2023-03-25T01:34:24;99461.41;;;9.41;94.71
30730;BME280;17476;48.458;7.928;2023-03-25T01:36:50;99466.16;;;9.37;94.90
30730;BME280;17476;48.458;7.928;2023-03-25T01:39:18;99500.41;;;9.34;96.00
30730;BME280;17476;48.458;7.928;2023-03-25T01:41:46;99516.06;;;9.34;95.30
30730;BME280;17476;48.458;7.928;2023-03-25T01:46:44;99581.47;;;9.33;95.80
30730;BME280;17476;48.458;7.928;2023-03-25T01:49:37;99600.22;;;9.20;96.35
30730;BME280;17476;48.458;7.928;2023-03-25T01:52:32;99597.28;;;9.07;97.20
30730;BME280;17476;48.458;7.928;2023-03-25T01:54:59;99599.09;;;8.98;98.22
30730;BME280;17476;48.458;7.928;2023-03-25T01:57:26;99549.53;;;8.90;100.00
30730;BME280;17476;48.458;7.928;2023-03-25T01:59:53;99531.41;;;8.64;99.00
30730;BME280;17476;48.458;7.928;2023-03-25T02:02:20;99537.59;;;8.63;96.72
30730;BME280;17476;48.458;7.928;2023-03-25T02:05:02;99536.63;;;8.56;97.99
30730;BME280;17476;48.458;7.928;2023-03-25T02:07:34;99527.00;;;8.56;98.80
30730;BME280;17476;48.458;7.928;2023-03-25T02:10:08;99526.66;;;8.51;97.43
30730;BME280;17476;48.458;7.928;2023-03-25T02:12:34;99524.88;;;8.43;98.81
30730;BME280;17476;48.458;7.928;2023-03-25T02:15:04;99517.38;;;8.40;97.84
30730;BME280;17476;48.458;7.928;2023-03-25T02:17:42;99528.88;;;8.30;100.00
30730;BME280;17476;48.458;7.928;2023-03-25T02:27:14;99482.88;;;8.63;100.00
30730;BME280;17476;48.458;7.928;2023-03-25T02:30:12;99510.22;;;8.67;100.00
30730;BME280;17476;48.458;7.928;2023-03-25T02:39:31;99497.53;;;8.72;100.00
30730;BME280;17476;48.458;7.928;2023-03-25T02:45:00;99501.75;;;8.48;100.00
30730;BME280;17476;48.458;7.928;2023-03-25T02:47:34;99509.25;;;8.52;100.00
30730;BME280;17476;48.458;7.928;2023-03-25T02:50:24;99495.25;;;8.61;100.00
30730;BME280;17476;48.458;7.928;2023-03-25T02:52:57;99500.31;;;8.62;100.00
30730;BME280;17476;48.458;7.928;2023-03-25T02:55:27;99508.78;;;8.64;100.00
30730;BME280;17476;48.458;7.928;2023-03-25T02:57:59;99517.91;;;8.68;100.00
30730;BME280;17476;48.458;7.928;2023-03-25T03:00:29;99521.81;;;8.72;100.00
30730;BME280;17476;48.458;7.928;2023-03-25T03:03:01;99521.50;;;8.75;100.00
30730;BME280;17476;48.458;7.928;2023-03-25T03:05:34;99514.31;;;8.78;100.00
30730;BME280;17476;48.458;7.928;2023-03-25T03:19:51;99530.44;;;8.73;100.00
30730;BME280;17476;48.458;7.928;2023-03-25T03:22:52;99535.34;;;8.76;100.00
30730;BME280;17476;48.458;7.928;2023-03-25T03:25:35;99528.97;;;8.79;100.00
30730;BME280;17476;48.458;7.928;2023-03-25T03:28:33;99535.69;;;8.81;99.85
30730;BME280;17476;48.458;7.928;2023-03-25T03:31:16;99521.97;;;8.87;99.80
30730;BME280;17476;48.458;7.928;2023-03-25T03:34:03;99526.38;;;8.87;97.43
30730;BME280;17476;48.458;7.928;2023-03-25T03:36:39;99533.84;;;8.73;99.16
30730;BME280;17476;48.458;7.928;2023-03-25T03:39:28;99535.34;;;8.68;99.73
30730;BME280;17476;48.458;7.928;2023-03-25T03:42:35;99531.41;;;8.64;99.46
30730;BME280;17476;48.458;7.928;2023-03-25T03:45:09;99538.75;;;8.68;98.52
30730;BME280;17476;48.458;7.928;2023-03-25T03:47:42;99537.94;;;8.68;99.12
30730;BME280;17476;48.458;7.928;2023-03-25T03:50:18;99534.53;;;8.67;98.41
30730;BME280;17476;48.458;7.928;2023-03-25T03:53:26;99536.63;;;8.72;98.02
30730;BME280;17476;48.458;7.928;2023-03-25T03:56:01;99534.53;;;8.67;98.57
30730;BME280;17476;48.458;7.928;2023-03-25T03:58:34;99541.38;;;8.68;99.08
30730;BME280;17476;48.458;7.928;2023-03-25T04:01:49;99551.16;;;8.74;99.91
30730;BME280;17476;48.458;7.928;2023-03-25T04:04:22;99552.28;;;8.80;99.84
30730;BME280;17476;48.458;7.928;2023-03-25T04:07:22;99544.97;;;8.84;99.45
30730;BME280;17476;48.458;7.928;2023-03-25T04:10:01;99552.28;;;8.80;98.87
30730;BME280;17476;48.458;7.928;2023-03-25T04:12:36;99551.00;;;8.84;97.33
30730;BME280;17476;48.458;7.928;2023-03-25T04:15:06;99551.63;;;8.78;97.20
30730;BME280;17476;48.458;7.928;2023-03-25T04:17:32;99547.22;;;8.79;96.20
30730;BME280;17476;48.458;7.928;2023-03-25T04:19:59;99541.19;;;8.78;95.07
30730;BME280;17476;48.458;7.928;2023-03-25T04:22:26;99535.50;;;8.74;96.05
30730;BME280;17476;48.458;7.928;2023-03-25T04:24:52;99545.31;;;8.81;95.12
30730;BME280;17476;48.458;7.928;2023-03-25T04:27:20;99546.25;;;8.71;94.36
30730;BME280;17476;48.458;7.928;2023-03-25T04:29:48;99542.66;;;8.56;95.44
30730;BME280;17476;48.458;7.928;2023-03-25T04:32:17;99536.63;;;8.56;95.00
30730;BME280;17476;48.458;7.928;2023-03-25T04:34:43;99538.06;;;8.50;96.48
30730;BME280;17476;48.458;7.928;2023-03-25T04:37:08;99546.41;;;8.54;95.27
30730;BME280;17476;48.458;7.928;2023-03-25T04:39:34;99553.38;;;8.53;96.15
30730;BME280;17476;48.458;7.928;2023-03-25T04:42:00;99537.59;;;8.55;95.84
30730;BME280;17476;48.458;7.928;2023-03-25T04:44:30;99535.16;;;8.61;94.02
30730;BME280;17476;48.458;7.928;2023-03-25T04:47:06;99538.75;;;8.60;93.66
30730;BME280;17476;48.458;7.928;2023-03-25T04:49:32;99547.84;;;8.56;93.78
30730;BME280;17476;48.458;7.928;2023-03-25T04:51:59;99549.47;;;8.57;94.95
30730;BME280;17476;48.458;7.928;2023-03-25T04:54:26;99553.41;;;8.61;92.59
30730;BME280;17476;48.458;7.928;2023-03-25T04:56:52;99553.41;;;8.61;92.49
30730;BME280;17476;48.458;7.928;2023-03-25T04:59:19;99564.31;;;8.57;93.66
30730;BME280;17476;48.458;7.928;2023-03-25T05:01:46;99568.38;;;8.59;93.30
30730;BME280;17476;48.458;7.928;2023-03-25T05:04:14;99559.75;;;8.67;92.88
30730;BME280;17476;48.458;7.928;2023-03-25T05:06:48;99556.19;;;8.68;93.00
30730;BME280;17476;48.458;7.928;2023-03-25T05:09:18;99557.31;;;8.73;91.51
30730;BME280;17476;48.458;7.928;2023-03-25T05:11:47;99559.44;;;8.62;91.91
30730;BME280;17476;48.458;7.928;2023-03-25T05:14:17;99560.56;;;8.59;93.03
30730;BME280;17476;48.458;7.928;2023-03-25T05:16:44;99557.00;;;8.60;92.93
30730;BME280;17476;48.458;7.928;2023-03-25T05:19:11;99556.66;;;8.55;92.25
30730;BME280;17476;48.458;7.928;2023-03-25T05:21:38;99567.09;;;8.55;91.88
30730;BME280;17476;48.458;7.928;2023-03-25T05:24:07;99571.47;;;8.55;93.15
30730;BME280;17476;48.458;7.928;2023-03-25T05:26:36;99568.19;;;8.53;91.44
30730;BME280;17476;48.458;7.928;2023-03-25T05:29:07;99579.13;;;8.56;92.33
30730;BME280;17476;48.458;7.928;2023-03-25T05:31:34;99581.56;;;8.50;93.31
30730;BME280;17476;48.458;7.928;2023-03-25T05:34:00;99582.84;;;8.45;93.60
30730;BME280;17476;48.458;7.928;2023-03-25T05:36:26;99585.63;;;8.44;93.68
30730;BME280;17476;48.458;7.928;2023-03-25T05:38:53;99581.41;;;8.51;92.92
30730;BME280;17476;48.458;7.928;2023-03-25T05:41:20;99578.31;;;8.56;92.62
30730;BME280;17476;48.458;7.928;2023-03-25T05:43:48;99584.00;;;8.51;93.38
30730;BME280;17476;48.458;7.928;2023-03-25T05:46:18;99580.28;;;8.54;93.04
30730;BME280;17476;48.458;7.928;2023-03-25T05:48:45;99581.56;;;8.50;93.07
30730;BME280;17476;48.458;7.928;2023-03-25T05:51:16;99580.94;;;8.56;93.27
30730;BME280;17476;48.458;7.928;2023-03-25T05:53:44;99587.13;;;8.55;93.35
30730;BME280;17476;48.458;7.928;2023-03-25T05:56:15;99578.31;;;8.56;93.90
30730;BME280;17476;48.458;7.928;2023-03-25T05:58:48;99574.22;;;8.45;94.39
30730;BME280;17476;48.458;7.928;2023-03-25T06:01:17;99580.41;;;8.44;95.00
30730;BME280;17476;48.458;7.928;2023-03-25T06:03:44;99581.69;;;8.40;97.29
30730;BME280;17476;48.458;7.928;2023-03-25T06:06:11;99579.41;;;8.45;95.88
30730;BME280;17476;48.458;7.928;2023-03-25T06:08:48;99571.59;;;8.37;97.07
30730;BME280;17476;48.458;7.928;2023-03-25T06:11:17;99575.81;;;8.38;96.79
30730;BME280;17476;48.458;7.928;2023-03-25T06:13:45;99568.50;;;8.41;96.92
30730;BME280;17476;48.458;7.928;2023-03-25T06:16:20;99568.81;;;8.38;95.97
30730;BME280;17476;48.458;7.928;2023-03-25T06:18:49;99569.16;;;8.43;96.06
30730;BME280;17476;48.458;7.928;2023-03-25T06:21:24;99569.00;;;8.53;95.48
30730;BME280;17476;48.458;7.928;2023-03-25T06:23:51;99570.34;;;8.57;95.52
30730;BME280;17476;48.458;7.928;2023-03-25T06:26:20;99572.94;;;8.65;94.65
30730;BME280;17476;48.458;7.928;2023-03-25T06:28:47;99563.84;;;8.61;94.23
30730;BME280;17476;48.458;7.928;2023-03-25T06:31:18;99573.63;;;8.67;94.58
30730;BME280;17476;48.458;7.928;2023-03-25T06:33:47;99567.56;;;8.67;94.04
30730;BME280;17476;48.458;7.928;2023-03-25T06:36:15;99564.31;;;8.73;94.78
30730;BME280;17476;48.458;7.928;2023-03-25T06:38:47;99561.25;;;8.86;94.24
30730;BME280;17476;48.458;7.928;2023-03-25T06:41:15;99552.78;;;8.84;93.16
30730;BME280;17476;48.458;7.928;2023-03-25T06:43:45;99548.38;;;8.84;94.29
30730;BME280;17476;48.458;7.928;2023-03-25T06:46:11;99547.09;;;8.88;93.65
30730;BME280;17476;48.458;7.928;2023-03-25T06:48:37;99548.72;;;8.89;93.74
30730;BME280;17476;48.458;7.928;2023-03-25T06:51:04;99545.47;;;8.95;93.26
30730;BME280;17476;48.458;7.928;2023-03-25T06:53:30;99551.50;;;8.96;93.21
30730;BME280;17476;48.458;7.928;2023-03-25T06:55:56;99547.59;;;9.08;93.36
30730;BME280;17476;48.458;7.928;2023-03-25T06:58:22;99557.03;;;9.17;91.11
30730;BME280;17476;48.458;7.928;2023-03-25T07:00:53;99553.91;;;9.14;92.70
30730;BME280;17476;48.458;7.928;2023-03-25T07:03:19;99554.25;;;9.19;92.08
30730;BME280;17476;48.458;7.928;2023-03-25T07:05:47;99549.03;;;9.19;91.77
30730;BME280;17476;48.458;7.928;2023-03-25T07:08:14;99541.38;;;9.09;93.05
30730;BME280;17476;48.458;7.928;2023-03-25T07:10:40;99547.25;;;9.11;92.35
30730;BME280;17476;48.458;7.928;2023-03-25T07:13:08;99550.50;;;9.05;94.34
30730;BME280;17476;48.458;7.928;2023-03-25T07:15:34;99554.09;;;8.96;95.30
30730;BME280;17476;48.458;7.928;2023-03-25T07:18:00;99540.38;;;8.94;96.05
30730;BME280;17476;48.458;7.928;2023-03-25T07:20:26;99541.22;;;8.94;97.35
30730;BME280;17476;48.458;7.928;2023-03-25T07:22:53;99545.28;;;8.97;98.58
30730;BME280;17476;48.458;7.928;2023-03-25T07:25:21;99546.75;;;8.99;99.20
30730;BME280;17476;48.458;7.928;2023-03-25T07:27:47;99539.25;;;9.05;97.80
30730;BME280;17476;48.458;7.928;2023-03-25T07:30:12;99537.97;;;9.09;95.49
30730;BME280;17476;48.458;7.928;2023-03-25T07:32:39;99538.94;;;9.16;96.41
30730;BME280;17476;48.458;7.928;2023-03-25T07:35:05;99533.56;;;9.17;96.17
30730;BME280;17476;48.458;7.928;2023-03-25T07:37:32;99546.59;;;9.17;97.02
30730;BME280;17476;48.458;7.928;2023-03-25T07:39:58;99540.72;;;9.07;98.79
30730;BME280;17476;48.458;7.928;2023-03-25T07:42:24;99541.69;;;9.14;99.39
30730;BME280;17476;48.458;7.928;2023-03-25T07:44:49;99541.69;;;9.30;98.74
30730;BME280;17476;48.458;7.928;2023-03-25T07:47:16;99540.06;;;9.29;99.42
30730;BME280;17476;48.458;7.928;2023-03-25T07:49:42;99552.59;;;9.34;98.64
30730;BME280;17476;48.458;7.928;2023-03-25T07:52:08;99548.22;;;9.26;99.05
30730;BME280;17476;48.458;7.928;2023-03-25T07:54:34;99552.44;;;9.27;99.97
30730;BME280;17476;48.458;7.928;2023-03-25T07:57:01;99539.56;;;9.34;100.00
30730;BME280;17476;48.458;7.928;2023-03-25T07:59:27;99547.22;;;9.27;100.00
30730;BME280;17476;48.458;7.928;2023-03-25T08:01:52;99555.38;;;9.33;100.00
30730;BME280;17476;48.458;7.928;2023-03-25T08:04:18;99544.47;;;9.37;100.00
30730;BME280;17476;48.458;7.928;2023-03-25T08:06:44;99547.84;;;9.54;99.45
30730;BME280;17476;48.458;7.928;2023-03-25T08:09:10;99542.97;;;9.51;99.63
30730;BME280;17476;48.458;7.928;2023-03-25T08:11:36;99539.84;;;9.64;100.00
30730;BME280;17476;48.458;7.928;2023-03-25T08:14:02;99542.28;;;9.65;98.74
30730;BME280;17476;48.458;7.928;2023-03-25T08:16:27;99535.03;;;9.83;99.87
30730;BME280;17476;48.458;7.928;2023-03-25T08:18:53;99533.16;;;10.00;99.39
30730;BME280;17476;48.458;7.928;2023-03-25T08:21:20;99543.09;;;10.13;98.10
30730;BME280;17476;48.458;7.928;2023-03-25T08:23:54;99540.28;;;10.15;95.80
30730;BME280;17476;48.458;7.928;2023-03-25T08:26:25;99539.63;;;10.21;96.97
30730;BME280;17476;48.458;7.928;2023-03-25T08:28:52;99549.38;;;10.35;96.17
30730;BME280;17476;48.458;7.928;2023-03-25T08:31:26;99539.28;;;10.55;94.18
30730;BME280;17476;48.458;7.928;2023-03-25T08:33:57;99545.50;;;10.77;94.55
30730;BME280;17476;48.458;7.928;2023-03-25T08:36:23;99539.94;;;10.80;91.70
30730;BME280;17476;48.458;7.928;2023-03-25T08:38:49;99543.00;;;10.83;89.93
30730;BME280;17476;48.458;7.928;2023-03-25T08:41:16;99540.69;;;10.88;91.48
30730;BME280;17476;48.458;7.928;2023-03-25T08:43:42;99544.78;;;10.91;90.01
30730;BME280;17476;48.458;7.928;2023-03-25T08:46:08;99541.31;;;10.90;89.38
30730;BME280;17476;48.458;7.928;2023-03-25T08:48:35;99542.44;;;10.96;89.79
30730;BME280;17476;48.458;7.928;2023-03-25T08:51:02;99536.19;;;10.97;89.98
30730;BME280;17476;48.458;7.928;2023-03-25T08:53:28;99532.72;;;11.05;89.92
30730;BME280;17476;48.458;7.928;2023-03-25T08:55:56;99539.50;;;11.14;87.25
30730;BME280;17476;48.458;7.928;2023-03-25T08:58:23;99543.53;;;11.25;87.28
30730;BME280;17476;48.458;7.928;2023-03-25T09:00:52;99533.75;;;11.18;87.37
30730;BME280;17476;48.458;7.928;2023-03-25T09:03:19;99543.34;;;11.26;88.77
30730;BME280;17476;48.458;7.928;2023-03-25T09:05:46;99537.22;;;11.34;88.85
30730;BME280;17476;48.458;7.928;2023-03-25T09:08:12;99536.78;;;11.60;89.90
30730;BME280;17476;48.458;7.928;2023-03-25T09:10:38;99540.22;;;11.75;87.17
30730;BME280;17476;48.458;7.928;2023-03-25T09:13:05;99535.91;;;11.82;87.69
30730;BME280;17476;48.458;7.928;2023-03-25T09:15:31;99534.25;;;12.11;84.37
30730;BME280;17476;48.458;7.928;2023-03-25T09:17:57;99537.31;;;12.14;85.21
30730;BME280;17476;48.458;7.928;2023-03-25T09:20:23;99540.66;;;12.23;85.36
30730;BME280;17476;48.458;7.928;2023-03-25T09:22:49;99536.41;;;12.22;86.93
30730;BME280;17476;48.458;7.928;2023-03-25T09:25:15;99534.97;;;12.19;83.08
30730;BME280;17476;48.458;7.928;2023-03-25T09:27:41;99534.34;;;12.02;85.09
30730;BME280;17476;48.458;7.928;2023-03-25T09:30:09;99528.50;;;12.00;84.33
30730;BME280;17476;48.458;7.928;2023-03-25T09:32:35;99534.81;;;12.06;84.73
30730;BME280;17476;48.458;7.928;2023-03-25T09:35:01;99518.31;;;12.12;85.37
30730;BME280;17476;48.458;7.928;2023-03-25T09:37:27;99521.09;;;12.40;82.59
30730;BME280;17476;48.458;7.928;2023-03-25T09:39:52;99536.19;;;12.60;83.21
30730;BME280;17476;48.458;7.928;2023-03-25T09:48:26;99542.16;;;12.47;79.24
30730;BME280;17476;48.458;7.928;2023-03-25T09:50:54;99540.28;;;12.83;80.15
30730;BME280;17476;48.458;7.928;2023-03-25T09:55:54;99537.97;;;12.95;78.11
30730;BME280;17476;48.458;7.928;2023-03-25T09:58:44;99549.09;;;12.76;74.83
30730;BME280;17476;48.458;7.928;2023-03-25T10:04:45;99558.63;;;12.41;75.86
30730;BME280;17476;48.458;7.928;2023-03-25T10:07:43;99569.31;;;12.10;78.26
30730;BME280;17476;48.458;7.928;2023-03-25T10:13:31;99580.50;;;11.74;82.32
30730;BME280;17476;48.458;7.928;2023-03-25T10:16:28;99591.50;;;11.92;81.60
30730;BME280;17476;48.458;7.928;2023-03-25T10:19:10;99576.75;;;12.06;81.26
30730;BME280;17476;48.458;7.928;2023-03-25T10:24:38;99582.69;;;12.15;79.15
30730;BME280;17476;48.458;7.928;2023-03-25T10:27:28;99579.03;;;12.45;79.29
30730;BME280;17476;48.458;7.928;2023-03-25T10:30:22;99579.44;;;13.06;76.52
30730;BME280;17476;48.458;7.928;2023-03-25T10:33:01;99591.06;;;13.19;75.71
30730;BME280;17476;48.458;7.928;2023-03-25T10:35:36;99591.78;;;13.27;74.48
30730;BME280;17476;48.458;7.928;2023-03-25T10:38:15;99586.88;;;13.46;74.43
30730;BME280;17476;48.458;7.928;2023-03-25T10:41:26;99585.44;;;13.71;69.13
30730;BME280;17476;48.458;7.928;2023-03-25T10:43:55;99584.81;;;13.69;65.52
30730;BME280;17476;48.458;7.928;2023-03-25T10:46:45;99590.31;;;13.74;63.47
30730;BME280;17476;48.458;7.928;2023-03-25T10:49:21;99589.13;;;13.49;63.30
30730;BME280;17476;48.458;7.928;2023-03-25T10:51:49;99587.16;;;13.29;62.10
30730;BME280;17476;48.458;7.928;2023-03-25T10:54:28;99580.00;;;13.45;62.70
30730;BME280;17476;48.458;7.928;2023-03-25T10:57:01;99567.88;;;13.44;61.49
30730;BME280;17476;48.458;7.928;2023-03-25T10:59:59;99555.00;;;13.27;60.42
30730;BME280;17476;48.458;7.928;2023-03-25T11:02:28;99561.19;;;13.20;65.07
30730;BME280;17476;48.458;7.928;2023-03-25T11:05:04;99574.50;;;13.39;67.50
30730;BME280;17476;48.458;7.928;2023-03-25T11:07:36;99584.34;;;13.59;63.86
30730;BME280;17476;48.458;7.928;2023-03-25T11:10:24;99572.88;;;13.66;63.91
30730;BME280;17476;48.458;7.928;2023-03-25T11:12:52;99587.94;;;13.51;62.61
30730;BME280;17476;48.458;7.928;2023-03-25T11:15:28;99591.56;;;13.50;63.08
30730;BME280;17476;48.458;7.928;2023-03-25T11:18:28;99582.47;;;13.53;65.37
30730;BME280;17476;48.458;7.928;2023-03-25T11:21:06;99594.13;;;13.44;64.76
30730;BME280;17476;48.458;7.928;2023-03-25T11:23:44;99602.34;;;13.34;65.15
30730;BME280;17476;48.458;7.928;2023-03-25T11:26:24;99593.22;;;13.30;66.71
30730;BME280;17476;48.458;7.928;2023-03-25T11:28:59;99600.72;;;13.33;65.81
30730;BME280;17476;48.458;7.928;2023-03-25T11:31:28;99601.34;;;13.35;66.11
30730;BME280;17476;48.458;7.928;2023-03-25T11:36:47;99609.84;;;13.16;64.24
30730;BME280;17476;48.458;7.928;2023-03-25T11:41:47;99606.84;;;13.68;64.88
30730;BME280;17476;48.458;7.928;2023-03-25T11:44:29;99602.50;;;13.82;64.90
30730;BME280;17476;48.458;7.928;2023-03-25T11:47:07;99610.22;;;13.90;63.99
30730;BME280;17476;48.458;7.928;2023-03-25T11:49:38;99609.63;;;13.94;65.66
30730;BME280;17476;48.458;7.928;2023-03-25T11:52:19;99606.56;;;13.84;63.66
30730;BME280;17476;48.458;7.928;2023-03-25T11:54:45;99602.78;;;14.00;65.83
30730;BME280;17476;48.458;7.928;2023-03-25T11:57:16;99601.22;;;13.71;60.81
30730;BME280;17476;48.458;7.928;2023-03-25T11:59:48;99590.41;;;13.59;63.79
30730;BME280;17476;48.458;7.928;2023-03-25T12:02:26;99592.31;;;13.44;63.65
30730;BME280;17476;48.458;7.928;2023-03-25T12:07:48;99594.78;;;13.80;65.88
30730;BME280;17476;48.458;7.928;2023-03-25T12:10:19;99600.88;;;14.63;62.35
30730;BME280;17476;48.458;7.928;2023-03-25T12:13:20;99602.94;;;14.74;59.55
30730;BME280;17476;48.458;7.928;2023-03-25T12:16:18;99601.34;;;14.93;59.92
30730;BME280;17476;48.458;7.928;2023-03-25T12:21:42;99592.47;;;15.74;55.71
30730;BME280;17476;48.458;7.928;2023-03-25T12:27:45;99572.59;;;17.06;53.84
30730;BME280;17476;48.458;7.928;2023-03-25T12:35:53;99551.78;;;18.21;49.81
30730;BME280;17476;48.458;7.928;2023-03-25T12:41:35;99553.00;;;19.08;46.46
30730;BME280;17476;48.458;7.928;2023-03-25T12:44:19;99548.19;;;19.76;50.40
30730;BME280;17476;48.458;7.928;2023-03-25T12:59:23;99556.91;;;16.48;50.14
30730;BME280;17476;48.458;7.928;2023-03-25T13:02:18;99567.19;;;16.11;52.24
30730;BME280;17476;48.458;7.928;2023-03-25T13:08:22;99551.25;;;15.99;53.60
30730;BME280;17476;48.458;7.928;2023-03-25T13:11:05;99550.19;;;16.07;53.49
30730;BME280;17476;48.458;7.928;2023-03-25T13:13:35;99540.38;;;16.59;53.01
30730;BME280;17476;48.458;7.928;2023-03-25T13:16:13;99530.59;;;17.66;51.99
30730;BME280;17476;48.458;7.928;2023-03-25T13:18:59;99529.34;;;18.53;49.19
30730;BME280;17476;48.458;7.928;2023-03-25T13:21:34;99540.50;;;18.74;44.04
30730;BME280;17476;48.458;7.928;2023-03-25T13:24:22;99543.81;;;18.39;44.75
30730;BME280;17476;48.458;7.928;2023-03-25T13:26:51;99551.44;;;18.17;46.53
30730;BME280;17476;48.458;7.928;2023-03-25T13:29:36;99534.03;;;18.40;47.38
30730;BME280;17476;48.458;7.928;2023-03-25T13:32:26;99542.50;;;18.60;45.80
30730;BME280;17476;48.458;7.928;2023-03-25T13:35:17;99548.38;;;18.62;45.62
30730;BME280;17476;48.458;7.928;2023-03-25T13:37:50;99542.91;;;18.75;47.59
30730;BME280;17476;48.458;7.928;2023-03-25T13:40:32;99538.13;;;18.96;46.00
30730;BME280;17476;48.458;7.928;2023-03-25T13:46:03;99526.09;;;18.40;46.39
30730;BME280;17476;48.458;7.928;2023-03-25T13:51:20;99525.91;;;17.25;48.61
30730;BME280;17476;48.458;7.928;2023-03-25T13:54:12;99531.09;;;16.88;50.17
30730;BME280;17476;48.458;7.928;2023-03-25T13:58:12;99551.91;;;16.71;52.65
30730;BME280;17476;48.458;7.928;2023-03-25T14:01:01;99585.13;;;15.96;60.32
30730;BME280;17476;48.458;7.928;2023-03-25T14:04:00;99605.41;;;15.02;65.44
30730;BME280;17476;48.458;7.928;2023-03-25T14:12:54;99566.00;;;14.48;66.53
30730;BME280;17476;48.458;7.928;2023-03-25T14:15:23;99566.25;;;14.60;62.08
30730;BME280;17476;48.458;7.928;2023-03-25T14:17:51;99569.09;;;14.65;62.57
30730;BME280;17476;48.458;7.928;2023-03-25T14:20:32;99565.44;;;14.66;62.37
30730;BME280;17476;48.458;7.928;2023-03-25T14:23:06;99571.31;;;14.68;63.51
30730;BME280;17476;48.458;7.928;2023-03-25T14:25:57;99577.59;;;14.60;61.62
30730;BME280;17476;48.458;7.928;2023-03-25T14:28:43;99573.28;;;14.46;61.76
30730;BME280;17476;48.458;7.928;2023-03-25T14:39:39;99553.16;;;15.33;55.78
30730;BME280;17476;48.458;7.928;2023-03-25T14:44:46;99553.94;;;15.73;57.30
30730;BME280;17476;48.458;7.928;2023-03-25T14:50:28;99550.69;;;15.71;55.79
30730;BME280;17476;48.458;7.928;2023-03-25T14:52:58;99559.16;;;15.99;56.67
30730;BME280;17476;48.458;7.928;2023-03-25T14:55:40;99556.66;;;16.11;53.83
30730;BME280;17476;48.458;7.928;2023-03-25T14:58:22;99551.56;;;16.16;55.24
30730;BME280;17476;48.458;7.928;2023-03-25T15:01:07;99543.09;;;16.46;53.90
30730;BME280;17476;48.458;7.928;2023-03-25T15:03:37;99542.25;;;16.52;52.48
30730;BME280;17476;48.458;7.928;2023-03-25T15:06:08;99547.50;;;16.58;51.31
30730;BME280;17476;48.458;7.928;2023-03-25T15:08:39;99544.41;;;16.68;52.39
30730;BME280;17476;48.458;7.928;2023-03-25T15:11:15;99542.38;;;17.02;52.11
30730;BME280;17476;48.458;7.928;2023-03-25T15:13:47;99545.44;;;17.24;49.84
30730;BME280;17476;48.458;7.928;2023-03-25T15:19:17;99531.13;;;17.74;49.36
30730;BME280;17476;48.458;7.928;2023-03-25T15:22:05;99534.47;;;17.45;46.44
30730;BME280;17476;48.458;7.928;2023-03-25T15:24:39;99528.38;;;17.19;48.30
30730;BME280;17476;48.458;7.928;2023-03-25T15:27:50;99533.44;;;17.28;47.38
30730;BME280;17476;48.458;7.928;2023-03-25T15:33:39;99513.63;;;16.55;48.21
30730;BME280;17476;48.458;7.928;2023-03-25T15:36:38;99507.47;;;16.61;46.14